Time;durP1;ratioP1;P1;durP2;ratioP2;P2;SDS_P1;SDS_P2;PMS_P1;PMS_P2;Temp;Humidity;BMP_temperature;BMP_pressure;BME280_temperature;BME280_humidity;BME280_pressure;Samples;Min_cycle;Max_cycle;Signal;HPM_P1;HPM_P2
2022/04/05 00:00:50;;;;;;;;;;;20.50;35.20;;;;;;5113668;28;19927;-46
2022/04/05 00:03:17;;;;;;;;;;;20.50;35.20;;;;;;5114500;28;19967;-45
2022/04/05 00:05:44;;;;;;;;;;;20.50;35.20;;;;;;5114926;28;20006;-50
2022/04/05 00:08:12;;;;;;;;;;;20.50;35.20;;;;;;5100683;28;19920;-48
2022/04/05 00:10:39;;;;;;;;;;;20.50;35.20;;;;;;5093989;28;19927;-48
2022/04/05 00:13:06;;;;;;;;;;;20.50;35.20;;;;;;5093237;28;19920;-49
2022/04/05 00:15:33;;;;;;;;;;;20.50;35.20;;;;;;5094179;28;19920;-46
2022/04/05 00:17:59;;;;;;;;;;;20.50;35.20;;;;;;5095194;28;19987;-48
2022/04/05 00:20:27;;;;;;;;;;;20.50;35.20;;;;;;5094624;28;19924;-48
2022/04/05 00:22:54;;;;;;;;;;;20.50;35.20;;;;;;5095453;28;20369;-49
2022/04/05 00:25:22;;;;;;;;;;;20.50;35.20;;;;;;5097987;28;19920;-49
2022/04/05 00:27:49;;;;;;;;;;;20.50;35.20;;;;;;5096348;28;19920;-48
2022/04/05 00:30:16;;;;;;;;;;;20.50;35.20;;;;;;5097327;28;19965;-47
2022/04/05 00:32:43;;;;;;;;;;;20.50;35.20;;;;;;5097877;28;19974;-50
2022/04/05 00:35:10;;;;;;;;;;;20.50;35.20;;;;;;5098538;28;19924;-49
2022/04/05 00:37:37;;;;;;;;;;;20.50;35.20;;;;;;5096724;28;19919;-45
2022/04/05 00:40:04;;;;;;;;;;;20.50;35.20;;;;;;5099555;28;19963;-46
2022/04/05 00:42:32;;;;;;;;;;;20.50;35.20;;;;;;5097972;28;19920;-46
2022/04/05 00:44:59;;;;;;;;;;;20.50;35.20;;;;;;5098112;28;19967;-47
2022/04/05 00:47:25;;;;;;;;;;;20.50;35.20;;;;;;5114140;28;19926;-47
2022/04/05 00:49:52;;;;;;;;;;;20.40;35.20;;;;;;5096712;28;19963;-47
2022/04/05 00:52:19;;;;;;;;;;;20.50;35.20;;;;;;5097789;28;19955;-45
2022/04/05 00:54:47;;;;;;;;;;;20.50;35.20;;;;;;5097262;28;20307;-47
2022/04/05 00:57:14;;;;;;;;;;;20.50;35.20;;;;;;5097101;28;20238;-46
2022/04/05 00:59:42;;;;;;;;;;;20.50;35.20;;;;;;5096859;28;19970;-48
2022/04/05 01:02:13;;;;;;;;;;;20.50;35.20;;;;;;5097402;28;20418;-46
2022/04/05 01:04:40;;;;;;;;;;;20.50;35.20;;;;;;5098609;28;20019;-46
2022/04/05 01:07:07;;;;;;;;;;;20.50;35.20;;;;;;5097350;28;19965;-49
2022/04/05 01:09:34;;;;;;;;;;;20.50;35.20;;;;;;5096851;28;19947;-47
2022/04/05 01:12:01;;;;;;;;;;;20.50;35.20;;;;;;5097343;28;19959;-47
2022/04/05 01:14:28;;;;;;;;;;;20.50;35.30;;;;;;5097315;28;19966;-45
2022/04/05 01:16:57;;;;;;;;;;;20.50;35.20;;;;;;5096146;28;19924;-48
2022/04/05 01:19:23;;;;;;;;;;;20.50;35.20;;;;;;5096704;28;19920;-49
2022/04/05 01:21:50;;;;;;;;;;;20.50;35.20;;;;;;5097372;28;19934;-45
2022/04/05 01:24:18;;;;;;;;;;;20.50;35.20;;;;;;5096018;28;19927;-45
2022/04/05 01:26:46;;;;;;;;;;;20.50;35.20;;;;;;5096487;28;19924;-48
2022/04/05 01:29:13;;;;;;;;;;;20.50;35.20;;;;;;5096104;28;19971;-50
2022/04/05 01:31:40;;;;;;;;;;;20.40;35.20;;;;;;5096426;28;20377;-46
2022/04/05 01:34:06;;;;;;;;;;;20.40;35.20;;;;;;5097258;28;19985;-45
2022/04/05 01:36:33;;;;;;;;;;;20.40;35.20;;;;;;5096356;28;19926;-48
2022/04/05 01:39:00;;;;;;;;;;;20.50;35.20;;;;;;5095278;28;20334;-46
2022/04/05 01:41:28;;;;;;;;;;;20.50;35.20;;;;;;5095821;28;20426;-45
2022/04/05 01:43:55;;;;;;;;;;;20.40;35.20;;;;;;5095345;28;19963;-45
2022/04/05 01:46:22;;;;;;;;;;;20.40;35.20;;;;;;5097565;28;19971;-45
2022/04/05 01:48:48;;;;;;;;;;;20.50;35.30;;;;;;5096980;28;19967;-45
2022/04/05 01:51:15;;;;;;;;;;;20.40;35.20;;;;;;5096046;28;19920;-45
2022/04/05 01:53:42;;;;;;;;;;;20.40;35.20;;;;;;5079492;28;20353;-46
2022/04/05 01:56:09;;;;;;;;;;;20.40;35.20;;;;;;5097071;28;19959;-46
2022/04/05 01:58:37;;;;;;;;;;;20.40;35.20;;;;;;5098185;28;19920;-45
2022/04/05 02:01:04;;;;;;;;;;;20.40;35.20;;;;;;5096896;28;19931;-45
2022/04/05 02:03:31;;;;;;;;;;;20.40;35.20;;;;;;5098314;28;19970;-47
2022/04/05 02:05:58;;;;;;;;;;;20.40;35.30;;;;;;5113865;28;19973;-46
2022/04/05 02:08:25;;;;;;;;;;;20.40;35.30;;;;;;5096258;28;20385;-46
2022/04/05 02:10:53;;;;;;;;;;;20.40;35.30;;;;;;5113262;28;19921;-47
2022/04/05 02:13:19;;;;;;;;;;;20.40;35.30;;;;;;5095418;28;19920;-45
2022/04/05 02:15:47;;;;;;;;;;;20.40;35.20;;;;;;5095964;28;19970;-45
2022/04/05 02:18:14;;;;;;;;;;;20.40;35.20;;;;;;5095384;28;20053;-45
2022/04/05 02:20:41;;;;;;;;;;;20.40;35.30;;;;;;5095463;28;20326;-45
2022/04/05 02:23:08;;;;;;;;;;;20.40;35.30;;;;;;5096575;28;19924;-46
2022/04/05 02:25:35;;;;;;;;;;;20.40;35.30;;;;;;5095525;28;20258;-49
2022/04/05 02:28:03;;;;;;;;;;;20.40;35.30;;;;;;5094915;28;19926;-45
2022/04/05 02:30:30;;;;;;;;;;;20.40;35.30;;;;;;5095909;28;19927;-45
2022/04/05 02:32:59;;;;;;;;;;;20.40;35.30;;;;;;5094889;28;19970;-46
2022/04/05 02:35:25;;;;;;;;;;;20.40;35.30;;;;;;5096329;28;20006;-45
2022/04/05 02:37:52;;;;;;;;;;;20.40;35.30;;;;;;5095373;28;20422;-45
2022/04/05 02:40:18;;;;;;;;;;;20.40;35.30;;;;;;5096221;28;20022;-46
2022/04/05 02:42:45;;;;;;;;;;;20.40;35.30;;;;;;5094656;28;19966;-45
2022/04/05 02:45:12;;;;;;;;;;;20.40;35.30;;;;;;5096301;28;19924;-47
2022/04/05 02:47:39;;;;;;;;;;;20.40;35.30;;;;;;5095295;28;19927;-46
2022/04/05 02:50:08;;;;;;;;;;;20.40;35.30;;;;;;5095408;28;19920;-45
2022/04/05 02:52:34;;;;;;;;;;;20.40;35.30;;;;;;5110937;28;19975;-46
2022/04/05 02:55:01;;;;;;;;;;;20.40;35.30;;;;;;5095412;28;19931;-46
2022/04/05 02:57:28;;;;;;;;;;;20.40;35.30;;;;;;5095229;28;19925;-46
2022/04/05 02:59:55;;;;;;;;;;;20.40;35.40;;;;;;5095351;28;20251;-46
2022/04/05 03:10:02;;;;;;;;;;;20.40;35.30;;;;;;5056780;28;19936;-49
2022/04/05 03:12:29;;;;;;;;;;;20.40;35.30;;;;;;5062947;28;20576;-46
2022/04/05 03:14:56;;;;;;;;;;;20.40;35.40;;;;;;5064382;28;19933;-46
2022/04/05 03:17:23;;;;;;;;;;;20.40;35.40;;;;;;5049183;28;19947;-50
2022/04/05 03:19:49;;;;;;;;;;;20.40;35.40;;;;;;5066126;28;20410;-48
2022/04/05 03:22:17;;;;;;;;;;;20.40;35.30;;;;;;5050233;28;19974;-47
2022/04/05 03:24:43;;;;;;;;;;;20.40;35.30;;;;;;5068007;28;19924;-49
2022/04/05 03:27:12;;;;;;;;;;;20.40;35.40;;;;;;5070874;28;19924;-48
2022/04/05 03:29:38;;;;;;;;;;;20.40;35.40;;;;;;5052753;28;20582;-46
2022/04/05 03:32:05;;;;;;;;;;;20.40;35.40;;;;;;5043143;28;19947;-50
2022/04/05 03:34:32;;;;;;;;;;;20.40;36.00;;;;;;5062687;28;20022;-51
2022/04/05 03:36:59;;;;;;;;;;;20.40;35.40;;;;;;5063171;28;20434;-49
2022/04/05 03:39:26;;;;;;;;;;;20.30;35.30;;;;;;5044940;28;19933;-47
2022/04/05 03:41:52;;;;;;;;;;;20.30;35.30;;;;;;5060342;28;19946;-50
2022/04/05 03:44:20;;;;;;;;;;;20.30;35.30;;;;;;5046385;28;20331;-50
2022/04/05 03:46:47;;;;;;;;;;;20.30;35.30;;;;;;5049320;28;20376;-46
2022/04/05 03:49:14;;;;;;;;;;;20.30;35.30;;;;;;5047227;28;19932;-52
2022/04/05 03:51:41;;;;;;;;;;;20.30;35.30;;;;;;5061963;28;19933;-47
2022/04/05 03:54:08;;;;;;;;;;;20.30;35.30;;;;;;5027220;28;19974;-48
2022/04/05 03:56:35;;;;;;;;;;;20.40;35.40;;;;;;5050224;28;20452;-51
2022/04/05 03:59:02;;;;;;;;;;;20.30;35.30;;;;;;5048308;28;19933;-47
2022/04/05 04:01:30;;;;;;;;;;;20.40;35.40;;;;;;5047909;28;20407;-48
2022/04/05 04:03:57;;;;;;;;;;;20.30;35.30;;;;;;5043439;28;20323;-45
2022/04/05 04:06:24;;;;;;;;;;;20.30;35.30;;;;;;5068347;28;19924;-48
2022/04/05 04:08:51;;;;;;;;;;;20.30;35.30;;;;;;5070258;28;20377;-46
2022/04/05 04:11:17;;;;;;;;;;;20.30;35.30;;;;;;5071630;28;19948;-46
2022/04/05 04:13:44;;;;;;;;;;;20.30;35.30;;;;;;5070972;28;19924;-48
2022/04/05 04:16:11;;;;;;;;;;;20.30;35.30;;;;;;5044195;28;19929;-45
2022/04/05 04:18:39;;;;;;;;;;;20.30;35.30;;;;;;5049268;28;20432;-49
2022/04/05 04:21:06;;;;;;;;;;;20.30;35.30;;;;;;5048206;28;19935;-52
2022/04/05 04:23:33;;;;;;;;;;;20.30;35.30;;;;;;5045986;28;19931;-47
2022/04/05 04:26:00;;;;;;;;;;;20.30;35.30;;;;;;5065981;28;20491;-45
2022/04/05 04:28:26;;;;;;;;;;;20.30;35.30;;;;;;5063940;28;19931;-47
2022/04/05 04:30:53;;;;;;;;;;;20.30;35.30;;;;;;5069638;28;20288;-47
2022/04/05 04:33:20;;;;;;;;;;;20.30;35.30;;;;;;5069053;28;20292;-46
2022/04/05 04:35:48;;;;;;;;;;;20.30;35.30;;;;;;5075408;28;19925;-49
2022/04/05 04:38:15;;;;;;;;;;;20.30;35.30;;;;;;5043592;28;19928;-50
2022/04/05 04:40:45;;;;;;;;;;;20.30;35.40;;;;;;5044781;28;19946;-47
2022/04/05 04:43:12;;;;;;;;;;;20.30;35.30;;;;;;5070145;28;20027;-50
2022/04/05 04:45:39;;;;;;;;;;;20.30;35.30;;;;;;5054842;28;20504;-48
2022/04/05 04:48:05;;;;;;;;;;;20.30;35.30;;;;;;5046019;28;19928;-51
2022/04/05 04:50:32;;;;;;;;;;;20.30;35.40;;;;;;5066268;28;19964;-48
2022/04/05 04:53:00;;;;;;;;;;;20.30;35.30;;;;;;5051737;28;19928;-50
2022/04/05 04:55:28;;;;;;;;;;;20.30;35.30;;;;;;5047223;28;19928;-50
2022/04/05 04:57:57;;;;;;;;;;;20.30;35.30;;;;;;5051912;28;19929;-50
2022/04/05 05:00:24;;;;;;;;;;;20.30;35.30;;;;;;5052167;28;19933;-48
2022/04/05 05:02:51;;;;;;;;;;;20.30;35.30;;;;;;5046374;28;20031;-47
2022/04/05 05:05:18;;;;;;;;;;;20.30;35.30;;;;;;5068825;28;19925;-50
2022/04/05 05:07:45;;;;;;;;;;;20.30;35.30;;;;;;5054043;28;19925;-48
2022/04/05 05:10:13;;;;;;;;;;;20.30;35.30;;;;;;5052985;28;19924;-48
2022/04/05 05:12:41;;;;;;;;;;;20.30;35.30;;;;;;5067323;28;19924;-50
2022/04/05 05:15:08;;;;;;;;;;;20.30;35.40;;;;;;5058351;28;19925;-49
2022/04/05 05:17:35;;;;;;;;;;;20.30;35.30;;;;;;5052534;28;19997;-48
2022/04/05 05:20:02;;;;;;;;;;;20.30;35.40;;;;;;5050449;28;19931;-48
2022/04/05 05:22:29;;;;;;;;;;;20.30;35.40;;;;;;5052759;28;19931;-49
2022/04/05 05:24:55;;;;;;;;;;;20.30;35.40;;;;;;5041966;28;19952;-48
2022/04/05 05:27:23;;;;;;;;;;;20.30;35.30;;;;;;5066897;28;19971;-48
2022/04/05 05:29:50;;;;;;;;;;;20.30;35.30;;;;;;5052730;28;19990;-48
2022/04/05 05:32:17;;;;;;;;;;;20.30;35.40;;;;;;5054159;28;19924;-49
2022/04/05 05:34:44;;;;;;;;;;;20.30;35.30;;;;;;5048206;28;19996;-45
2022/04/05 05:37:11;;;;;;;;;;;20.30;35.30;;;;;;5053292;28;19925;-50
2022/04/05 05:39:38;;;;;;;;;;;20.30;35.40;;;;;;5069397;28;19925;-50
2022/04/05 05:42:05;;;;;;;;;;;20.30;35.40;;;;;;5073329;28;19925;-51
2022/04/05 05:44:34;;;;;;;;;;;20.30;35.30;;;;;;5057345;28;20392;-47
2022/04/05 05:47:00;;;;;;;;;;;20.30;35.30;;;;;;5059799;28;19967;-51
2022/04/05 05:49:27;;;;;;;;;;;20.30;35.30;;;;;;5041647;28;19925;-53
2022/04/05 05:51:54;;;;;;;;;;;20.30;35.30;;;;;;5056002;28;19930;-49
2022/04/05 05:54:21;;;;;;;;;;;20.30;35.30;;;;;;5051891;28;19962;-49
2022/04/05 05:56:48;;;;;;;;;;;20.30;35.30;;;;;;5043182;28;19975;-48
2022/04/05 05:59:15;;;;;;;;;;;20.30;35.40;;;;;;5042664;28;19929;-50
2022/04/05 06:01:43;;;;;;;;;;;20.30;35.40;;;;;;5053907;28;19925;-49
2022/04/05 06:04:10;;;;;;;;;;;20.30;35.30;;;;;;5053112;28;19956;-46
2022/04/05 06:06:37;;;;;;;;;;;20.30;35.30;;;;;;5061977;28;19937;-49
2022/04/05 06:09:04;;;;;;;;;;;20.30;35.30;;;;;;5051497;28;20427;-48
2022/04/05 06:11:30;;;;;;;;;;;20.30;35.30;;;;;;5050372;28;19928;-51
2022/04/05 06:13:57;;;;;;;;;;;20.30;35.30;;;;;;5056643;28;20296;-48
2022/04/05 06:16:24;;;;;;;;;;;20.30;35.30;;;;;;5062800;28;19924;-50
2022/04/05 06:18:52;;;;;;;;;;;20.30;35.30;;;;;;5056782;28;19931;-49
2022/04/05 06:21:20;;;;;;;;;;;20.30;35.30;;;;;;5042143;28;19925;-55
2022/04/05 06:23:47;;;;;;;;;;;20.30;35.30;;;;;;5045997;28;19928;-50
2022/04/05 06:26:15;;;;;;;;;;;20.30;35.30;;;;;;5068636;28;20027;-48
2022/04/05 06:28:42;;;;;;;;;;;20.30;35.30;;;;;;5054607;28;20035;-53
2022/04/05 06:31:09;;;;;;;;;;;20.30;35.30;;;;;;5049952;28;19935;-51
2022/04/05 06:33:36;;;;;;;;;;;20.30;35.30;;;;;;5068448;28;20442;-54
2022/04/05 06:36:04;;;;;;;;;;;20.30;35.30;;;;;;5053251;28;20363;-48
2022/04/05 06:38:31;;;;;;;;;;;20.30;35.30;;;;;;5068887;28;19932;-47
2022/04/05 06:41:00;;;;;;;;;;;20.30;35.30;;;;;;5045760;28;19975;-49
2022/04/05 06:43:28;;;;;;;;;;;20.30;35.30;;;;;;5067881;28;19928;-54
2022/04/05 06:45:54;;;;;;;;;;;20.30;35.30;;;;;;5061361;28;20337;-51
2022/04/05 06:48:21;;;;;;;;;;;20.30;35.30;;;;;;5066857;28;19936;-49
2022/04/05 06:50:50;;;;;;;;;;;20.30;35.30;;;;;;5044701;28;19929;-55
2022/04/05 06:53:19;;;;;;;;;;;20.30;35.30;;;;;;5054576;28;19925;-58
2022/04/05 06:55:46;;;;;;;;;;;20.30;35.30;;;;;;5047297;28;20003;-51
2022/04/05 06:58:12;;;;;;;;;;;20.30;35.30;;;;;;5062851;28;20019;-49
2022/04/05 07:00:39;;;;;;;;;;;20.30;35.30;;;;;;5065614;28;19966;-51
2022/04/05 07:03:06;;;;;;;;;;;20.30;35.90;;;;;;5061415;28;19925;-51
2022/04/05 07:05:33;;;;;;;;;;;20.30;35.30;;;;;;5066724;28;19928;-55
2022/04/05 07:08:00;;;;;;;;;;;20.30;35.40;;;;;;5070583;28;20117;-51
2022/04/05 07:10:28;;;;;;;;;;;20.30;35.20;;;;;;5066556;28;19925;-52
2022/04/05 07:12:55;;;;;;;;;;;20.30;34.80;;;;;;5068380;28;20011;-48
2022/04/05 07:15:22;;;;;;;;;;;20.20;33.80;;;;;;5068043;28;20005;-48
2022/04/05 07:17:48;;;;;;;;;;;20.20;33.50;;;;;;5062044;28;20047;-47
2022/04/05 07:20:15;;;;;;;;;;;20.20;33.20;;;;;;5043984;28;19924;-48
2022/04/05 07:22:47;;;;;;;;;;;20.10;33.10;;;;;;5062398;28;19986;-47
2022/04/05 07:25:14;;;;;;;;;;;20.10;33.20;;;;;;5037901;28;20030;-50
2022/04/05 07:27:44;;;;;;;;;;;20.10;33.40;;;;;;5059046;28;19931;-50
2022/04/05 07:30:11;;;;;;;;;;;20.00;33.50;;;;;;5039146;28;19989;-50
2022/04/05 07:32:38;;;;;;;;;;;20.00;33.60;;;;;;5064267;28;19964;-49
2022/04/05 07:35:05;;;;;;;;;;;20.10;33.80;;;;;;5056772;28;19975;-46
2022/04/05 07:37:32;;;;;;;;;;;20.00;33.80;;;;;;5063031;28;20433;-48
2022/04/05 07:39:59;;;;;;;;;;;20.10;33.90;;;;;;5061526;28;19928;-54
2022/04/05 07:42:26;;;;;;;;;;;20.10;33.90;;;;;;5044182;28;20393;-53
2022/04/05 07:44:54;;;;;;;;;;;20.10;34.00;;;;;;5054169;28;19994;-48
2022/04/05 07:47:21;;;;;;;;;;;20.10;34.00;;;;;;5047886;28;19928;-52
2022/04/05 07:49:47;;;;;;;;;;;20.10;34.00;;;;;;5063957;28;19934;-49
2022/04/05 07:52:14;;;;;;;;;;;20.20;34.10;;;;;;5046356;28;19954;-53
2022/04/05 07:54:41;;;;;;;;;;;20.20;34.30;;;;;;5060923;28;19928;-56
2022/04/05 07:57:09;;;;;;;;;;;20.20;34.20;;;;;;5061176;28;19943;-55
2022/04/05 07:59:47;;;;;;;;;;;20.20;34.20;;;;;;5045307;28;19978;-47
2022/04/05 08:02:15;;;;;;;;;;;20.20;34.20;;;;;;5066822;28;20019;-51
2022/04/05 08:04:42;;;;;;;;;;;20.20;34.30;;;;;;5044315;28;20388;-49
2022/04/05 08:07:09;;;;;;;;;;;20.20;34.20;;;;;;5050760;28;19932;-51
2022/04/05 08:09:36;;;;;;;;;;;20.20;34.30;;;;;;5048336;28;20130;-55
2022/04/05 08:12:03;;;;;;;;;;;20.20;34.30;;;;;;5045585;28;19960;-49
2022/04/05 08:14:31;;;;;;;;;;;20.20;34.30;;;;;;5067325;28;19967;-53
2022/04/05 08:16:58;;;;;;;;;;;20.20;34.30;;;;;;5046673;28;19930;-55
2022/04/05 08:19:26;;;;;;;;;;;20.30;34.40;;;;;;5040017;28;19925;-53
2022/04/05 08:21:53;;;;;;;;;;;20.30;34.40;;;;;;5054401;28;19955;-51
2022/04/05 08:24:20;;;;;;;;;;;20.30;34.40;;;;;;5046786;28;19987;-49
2022/04/05 08:26:47;;;;;;;;;;;20.30;34.40;;;;;;5046649;28;19963;-52
2022/04/05 08:29:14;;;;;;;;;;;20.30;34.40;;;;;;5047343;28;20031;-49
2022/04/05 08:31:41;;;;;;;;;;;20.30;34.40;;;;;;5043947;28;19929;-51
2022/04/05 08:34:07;;;;;;;;;;;20.30;34.60;;;;;;5064860;28;20043;-57
2022/04/05 08:36:35;;;;;;;;;;;20.30;34.50;;;;;;5041285;28;20019;-48
2022/04/05 08:39:02;;;;;;;;;;;20.30;34.50;;;;;;5047179;28;19929;-48
2022/04/05 08:41:32;;;;;;;;;;;20.30;34.50;;;;;;5064927;28;19928;-52
2022/04/05 08:43:59;;;;;;;;;;;20.40;34.70;;;;;;5041802;28;19994;-52
2022/04/05 08:46:26;;;;;;;;;;;20.40;34.70;;;;;;5044371;28;19924;-49
2022/04/05 08:48:53;;;;;;;;;;;20.40;34.70;;;;;;5046394;28;20364;-48
2022/04/05 08:51:19;;;;;;;;;;;20.40;34.70;;;;;;5069646;28;19928;-51
2022/04/05 08:53:48;;;;;;;;;;;20.30;34.70;;;;;;5047085;28;19935;-51
2022/04/05 08:56:16;;;;;;;;;;;20.40;34.70;;;;;;5048193;28;20443;-46
2022/04/05 08:58:42;;;;;;;;;;;20.40;34.70;;;;;;5052712;28;20059;-50
2022/04/05 09:01:09;;;;;;;;;;;20.40;34.80;;;;;;5066264;28;19933;-50
2022/04/05 09:03:36;;;;;;;;;;;20.40;35.40;;;;;;5063735;28;19934;-53
2022/04/05 09:06:18;;;;;;;;;;;20.40;34.80;;;;;;5039011;28;19929;-50
2022/04/05 09:08:44;;;;;;;;;;;20.40;34.80;;;;;;5051756;28;20378;-50
2022/04/05 09:11:13;;;;;;;;;;;20.40;34.80;;;;;;5061756;28;19944;-46
2022/04/05 09:13:40;;;;;;;;;;;20.40;34.80;;;;;;5060198;28;20455;-50
2022/04/05 09:16:08;;;;;;;;;;;20.40;34.80;;;;;;5038263;28;19937;-48
2022/04/05 09:18:35;;;;;;;;;;;20.50;34.80;;;;;;5061565;28;19924;-53
2022/04/05 09:21:02;;;;;;;;;;;20.50;34.80;;;;;;5044735;28;19994;-50
2022/04/05 09:23:29;;;;;;;;;;;20.40;34.80;;;;;;5025964;28;19933;-55
2022/04/05 09:25:58;;;;;;;;;;;20.40;34.80;;;;;;5039595;28;19936;-52
2022/04/05 09:28:38;;;;;;;;;;;20.50;34.80;;;;;;5060350;28;19933;-50
2022/04/05 09:31:05;;;;;;;;;;;20.50;34.80;;;;;;5036740;28;19928;-50
2022/04/05 09:33:32;;;;;;;;;;;20.40;35.10;;;;;;5067196;28;19946;-54
2022/04/05 09:36:09;;;;;;;;;;;20.40;34.80;;;;;;5048840;28;19960;-51
2022/04/05 09:38:38;;;;;;;;;;;20.50;34.90;;;;;;5052170;28;19928;-51
2022/04/05 09:41:11;;;;;;;;;;;20.50;34.80;;;;;;5049317;28;19925;-52
2022/04/05 09:43:39;;;;;;;;;;;20.50;34.90;;;;;;5050983;28;20020;-54
2022/04/05 09:46:06;;;;;;;;;;;20.50;34.90;;;;;;5067511;28;19929;-50
2022/04/05 09:48:35;;;;;;;;;;;20.50;34.90;;;;;;5050975;28;19925;-48
2022/04/05 09:51:06;;;;;;;;;;;20.50;34.90;;;;;;5064781;28;20254;-47
2022/04/05 09:53:41;;;;;;;;;;;20.50;34.90;;;;;;5060028;28;20015;-50
2022/04/05 09:56:09;;;;;;;;;;;20.50;34.90;;;;;;5047706;28;19932;-49
2022/04/05 09:58:35;;;;;;;;;;;20.60;35.00;;;;;;5065083;28;19987;-50
2022/04/05 10:01:07;;;;;;;;;;;20.50;34.90;;;;;;5044273;28;19929;-50
2022/04/05 10:03:34;;;;;;;;;;;20.50;34.90;;;;;;5059972;28;20361;-48
2022/04/05 10:06:01;;;;;;;;;;;20.50;34.90;;;;;;5039414;28;19928;-49
2022/04/05 10:08:29;;;;;;;;;;;20.50;35.00;;;;;;5040302;28;20369;-47
2022/04/05 10:10:56;;;;;;;;;;;20.50;35.00;;;;;;5044832;28;19972;-48
2022/04/05 10:13:23;;;;;;;;;;;20.60;35.10;;;;;;5046355;28;20029;-50
2022/04/05 10:15:51;;;;;;;;;;;20.60;35.10;;;;;;5060685;28;19932;-47
2022/04/05 10:18:20;;;;;;;;;;;20.50;35.00;;;;;;5060812;28;20453;-51
2022/04/05 10:20:47;;;;;;;;;;;20.50;35.10;;;;;;5042046;28;19928;-49
2022/04/05 10:23:14;;;;;;;;;;;20.50;35.10;;;;;;5059529;28;19934;-52
2022/04/05 10:25:43;;;;;;;;;;;20.60;35.10;;;;;;5046576;28;19939;-46
2022/04/05 10:28:10;;;;;;;;;;;20.60;35.20;;;;;;5064780;28;19939;-50
2022/04/05 10:30:37;;;;;;;;;;;20.60;35.20;;;;;;5061088;28;20357;-49
2022/04/05 10:33:04;;;;;;;;;;;20.60;35.20;;;;;;5043381;28;19928;-53
2022/04/05 10:35:33;;;;;;;;;;;20.60;35.20;;;;;;5048640;28;19982;-45
2022/04/05 10:38:10;;;;;;;;;;;20.60;35.20;;;;;;5043221;28;19932;-48
2022/04/05 10:40:37;;;;;;;;;;;20.60;35.80;;;;;;5045312;28;19929;-47
2022/04/05 10:43:14;;;;;;;;;;;20.60;35.20;;;;;;5064652;28;19937;-51
2022/04/05 10:45:42;;;;;;;;;;;20.60;35.20;;;;;;5062395;28;19928;-46
2022/04/05 10:48:13;;;;;;;;;;;20.60;35.20;;;;;;5062405;28;19928;-53
2022/04/05 10:50:42;;;;;;;;;;;20.60;35.20;;;;;;5048964;28;19947;-49
2022/04/05 10:53:27;;;;;;;;;;;20.60;35.20;;;;;;5044925;28;19928;-49
2022/04/05 10:56:14;;;;;;;;;;;20.60;35.30;;;;;;5039356;28;19924;-53
2022/04/05 10:58:41;;;;;;;;;;;20.60;35.30;;;;;;5041335;28;19940;-52
2022/04/05 11:01:15;;;;;;;;;;;20.60;35.30;;;;;;5043297;28;19936;-52
2022/04/05 11:03:44;;;;;;;;;;;20.60;35.30;;;;;;5038025;28;20446;-47
2022/04/05 11:06:12;;;;;;;;;;;20.60;35.30;;;;;;5040889;28;20624;-54
2022/04/05 11:08:39;;;;;;;;;;;20.60;35.30;;;;;;5037966;28;19925;-51
2022/04/05 11:11:08;;;;;;;;;;;20.60;35.40;;;;;;5035138;28;20386;-46
2022/04/05 11:13:42;;;;;;;;;;;20.60;35.40;;;;;;5044933;28;19939;-48
2022/04/05 11:16:10;;;;;;;;;;;20.60;35.40;;;;;;5040285;28;20370;-52
2022/04/05 11:18:37;;;;;;;;;;;20.60;35.40;;;;;;5059823;28;19978;-53
2022/04/05 11:21:08;;;;;;;;;;;20.60;35.40;;;;;;5040843;28;19974;-53
2022/04/05 11:23:44;;;;;;;;;;;20.60;35.40;;;;;;5039165;28;20269;-48
2022/04/05 11:26:22;;;;;;;;;;;20.60;35.40;;;;;;5045595;28;20383;-49
2022/04/05 11:28:49;;;;;;;;;;;20.60;35.40;;;;;;5045816;28;19928;-52
2022/04/05 11:31:26;;;;;;;;;;;20.70;35.50;;;;;;5045861;28;19928;-49
2022/04/05 11:33:53;;;;;;;;;;;20.60;35.40;;;;;;5065101;28;19963;-50
2022/04/05 11:36:22;;;;;;;;;;;20.60;35.40;;;;;;5065160;28;19932;-54
2022/04/05 11:38:51;;;;;;;;;;;20.60;35.40;;;;;;5063324;28;19934;-47
2022/04/05 11:41:21;;;;;;;;;;;20.60;35.50;;;;;;5040801;28;19929;-50
2022/04/05 11:43:50;;;;;;;;;;;20.60;35.50;;;;;;5063773;28;19936;-53
2022/04/05 11:46:18;;;;;;;;;;;20.60;35.50;;;;;;5051207;28;19935;-48
2022/04/05 11:48:45;;;;;;;;;;;20.60;35.50;;;;;;5060230;28;19932;-49
2022/04/05 11:51:12;;;;;;;;;;;20.60;35.50;;;;;;5058190;28;20360;-46
2022/04/05 11:53:39;;;;;;;;;;;20.60;35.50;;;;;;5047899;28;20003;-49
2022/04/05 11:56:20;;;;;;;;;;;20.60;35.60;;;;;;5043541;28;20581;-49
2022/04/05 11:58:48;;;;;;;;;;;20.60;35.60;;;;;;5036926;28;19956;-45
2022/04/05 12:01:15;;;;;;;;;;;20.70;35.60;;;;;;5045742;28;19990;-49
2022/04/05 12:03:44;;;;;;;;;;;20.70;35.60;;;;;;5045223;28;19948;-54
2022/04/05 12:06:11;;;;;;;;;;;20.70;35.70;;;;;;5048842;28;20207;-48
2022/04/05 12:08:37;;;;;;;;;;;20.70;35.70;;;;;;5067637;28;19978;-53
2022/04/05 12:11:05;;;;;;;;;;;20.70;35.70;;;;;;5041411;28;19925;-47
2022/04/05 12:13:34;;;;;;;;;;;20.70;35.80;;;;;;5038775;28;20438;-50
2022/04/05 12:16:02;;;;;;;;;;;20.70;35.80;;;;;;5051193;28;19939;-48
2022/04/05 12:18:29;;;;;;;;;;;20.70;35.80;;;;;;5047591;28;20713;-52
2022/04/05 12:20:59;;;;;;;;;;;20.70;35.80;;;;;;5051224;28;19929;-52
2022/04/05 12:23:30;;;;;;;;;;;20.70;35.80;;;;;;5066382;28;19998;-49
2022/04/05 12:26:04;;;;;;;;;;;20.70;35.90;;;;;;5062926;28;19966;-50
2022/04/05 12:28:30;;;;;;;;;;;20.70;35.90;;;;;;5061274;28;20330;-51
2022/04/05 12:31:05;;;;;;;;;;;20.70;35.90;;;;;;5069228;28;19928;-51
2022/04/05 12:33:31;;;;;;;;;;;20.70;35.90;;;;;;5043757;28;19982;-50
2022/04/05 12:35:58;;;;;;;;;;;20.70;35.90;;;;;;5065861;28;19966;-50
2022/04/05 12:38:25;;;;;;;;;;;20.70;35.90;;;;;;5047224;28;19956;-50
2022/04/05 12:40:52;;;;;;;;;;;20.70;35.90;;;;;;5050689;28;19935;-49
2022/04/05 12:43:19;;;;;;;;;;;20.70;35.90;;;;;;5046803;28;19971;-49
2022/04/05 12:45:46;;;;;;;;;;;20.70;36.00;;;;;;5052776;28;19954;-54
2022/04/05 12:48:14;;;;;;;;;;;20.70;35.90;;;;;;5065252;28;19982;-48
2022/04/05 12:50:43;;;;;;;;;;;20.70;35.90;;;;;;5048168;28;19936;-49
2022/04/05 12:53:09;;;;;;;;;;;20.70;36.00;;;;;;5047105;28;19924;-51
2022/04/05 12:55:36;;;;;;;;;;;20.70;35.90;;;;;;5063207;28;20015;-52
2022/04/05 12:58:03;;;;;;;;;;;20.80;36.10;;;;;;5043961;28;20277;-49
2022/04/05 13:00:32;;;;;;;;;;;20.70;36.00;;;;;;5039217;28;19988;-50
2022/04/05 13:02:59;;;;;;;;;;;20.70;36.00;;;;;;5042706;28;19935;-51
2022/04/05 13:08:13;;;;;;;;;;;20.70;36.00;;;;;;5060344;28;20025;-48
2022/04/05 13:10:40;;;;;;;;;;;20.70;36.00;;;;;;5056841;28;19935;-52
2022/04/05 13:13:14;;;;;;;;;;;20.70;36.10;;;;;;5061148;28;19995;-49
2022/04/05 13:15:41;;;;;;;;;;;20.80;36.10;;;;;;5036394;28;19929;-48
2022/04/05 13:18:08;;;;;;;;;;;20.70;36.10;;;;;;5059479;28;19925;-56
2022/04/05 13:20:36;;;;;;;;;;;20.70;36.10;;;;;;5067090;28;19928;-50
2022/04/05 13:23:03;;;;;;;;;;;20.70;36.10;;;;;;5051818;28;19962;-53
2022/04/05 13:25:34;;;;;;;;;;;20.70;36.10;;;;;;5061877;28;19935;-55
2022/04/05 13:28:00;;;;;;;;;;;20.70;36.80;;;;;;5063194;28;19986;-53
2022/04/05 13:30:27;;;;;;;;;;;20.70;36.20;;;;;;5057098;28;19935;-48
2022/04/05 13:33:04;;;;;;;;;;;20.70;36.20;;;;;;5056333;28;19948;-52
2022/04/05 13:35:31;;;;;;;;;;;20.70;36.30;;;;;;5062719;28;19929;-56
2022/04/05 13:37:59;;;;;;;;;;;20.70;36.30;;;;;;5043580;28;19989;-48
2022/04/05 13:40:26;;;;;;;;;;;20.70;36.30;;;;;;5053348;28;19924;-48
2022/04/05 13:42:53;;;;;;;;;;;20.70;36.40;;;;;;5064778;28;19933;-53
2022/04/05 13:45:20;;;;;;;;;;;20.70;36.40;;;;;;5049198;28;19928;-49
2022/04/05 13:47:47;;;;;;;;;;;20.70;36.40;;;;;;5046794;28;20397;-49
2022/04/05 13:50:13;;;;;;;;;;;20.70;36.40;;;;;;5040983;28;19993;-50
2022/04/05 13:52:41;;;;;;;;;;;20.70;36.40;;;;;;5058411;28;19932;-48
2022/04/05 13:55:09;;;;;;;;;;;20.60;36.30;;;;;;5060682;28;19962;-57
2022/04/05 13:57:36;;;;;;;;;;;20.60;36.30;;;;;;5045864;28;19932;-56
2022/04/05 14:00:04;;;;;;;;;;;20.60;36.30;;;;;;5043641;28;20005;-49
2022/04/05 14:02:31;;;;;;;;;;;20.60;36.30;;;;;;5046587;28;20031;-53
2022/04/05 14:04:58;;;;;;;;;;;20.60;37.00;;;;;;5047271;28;20561;-54
2022/04/05 14:07:25;;;;;;;;;;;20.60;36.40;;;;;;5056890;28;19944;-53
2022/04/05 14:09:52;;;;;;;;;;;20.60;36.40;;;;;;5043491;28;19928;-55
2022/04/05 14:12:20;;;;;;;;;;;20.60;36.30;;;;;;5059776;28;19932;-49
2022/04/05 14:14:47;;;;;;;;;;;20.60;36.40;;;;;;5046706;28;20418;-54
2022/04/05 14:17:14;;;;;;;;;;;20.50;36.30;;;;;;5057483;28;19932;-51
2022/04/05 14:19:40;;;;;;;;;;;20.50;36.30;;;;;;5033408;28;20395;-55
2022/04/05 14:22:07;;;;;;;;;;;20.50;36.20;;;;;;5058492;28;19928;-45
2022/04/05 14:24:34;;;;;;;;;;;20.50;36.30;;;;;;5045305;28;20314;-49
2022/04/05 14:27:01;;;;;;;;;;;20.50;36.30;;;;;;5038201;28;19935;-51
2022/04/05 14:29:29;;;;;;;;;;;20.50;36.20;;;;;;5056985;28;20454;-51